Time;durP1;ratioP1;P1;durP2;ratioP2;P2;SDS_P1;SDS_P2;PMS_P1;PMS_P2;Temp;Humidity;BMP_temperature;BMP_pressure;BME280_temperature;BME280_humidity;BME280_pressure;Samples;Min_cycle;Max_cycle;Signal;HPM_P1;HPM_P2
2021/11/29 00:00:14;;;;;;;1057.30;965.90;;;0.30;99.90;;;;;;4867863;29;20559;-85
2021/11/29 00:02:42;;;;;;;1052.33;961.30;;;0.30;99.90;;;;;;4867650;29;20456;-85
2021/11/29 00:05:09;;;;;;;1056.20;964.73;;;0.40;99.90;;;;;;4867398;29;20472;-87
2021/11/29 00:07:36;;;;;;;1048.97;956.73;;;0.50;99.90;;;;;;4867341;29;20896;-85
2021/11/29 00:10:05;;;;;;;1045.70;954.50;;;0.50;99.90;;;;;;4879206;29;20750;-85
2021/11/29 00:12:32;;;;;;;1030.28;939.42;;;0.50;99.90;;;;;;4867591;29;20452;-86
2021/11/29 00:14:59;;;;;;;1033.77;943.10;;;0.50;99.90;;;;;;4867983;29;20282;-85
2021/11/29 00:17:27;;;;;;;1021.27;931.00;;;0.70;99.90;;;;;;4867270;29;20484;-84
2021/11/29 00:19:54;;;;;;;1007.00;917.70;;;0.60;99.90;;;;;;4867257;29;20532;-85
2021/11/29 00:22:20;;;;;;;1001.92;915.33;;;0.70;99.90;;;;;;4867291;29;20226;-85
2021/11/29 00:24:47;;;;;;;998.77;912.00;;;0.80;99.90;;;;;;4868162;29;20204;-85
2021/11/29 00:27:14;;;;;;;986.13;900.67;;;0.80;99.90;;;;;;4867321;29;20489;-85
2021/11/29 00:29:42;;;;;;;986.97;902.03;;;0.80;99.90;;;;;;4867653;29;20496;-85
2021/11/29 00:32:10;;;;;;;952.90;870.73;;;0.70;99.90;;;;;;4867048;29;20475;-85
2021/11/29 00:34:39;;;;;;;957.20;875.17;;;0.90;99.90;;;;;;4867957;29;20468;-85
2021/11/29 00:37:05;;;;;;;952.37;870.23;;;0.80;99.90;;;;;;4866724;29;20527;-85
2021/11/29 00:39:33;;;;;;;950.80;868.77;;;0.90;99.90;;;;;;4867446;29;20470;-85
2021/11/29 00:42:00;;;;;;;959.30;878.50;;;0.80;99.90;;;;;;4866224;29;20503;-85
2021/11/29 00:44:27;;;;;;;956.73;877.30;;;0.80;99.90;;;;;;4866642;29;20459;-85
2021/11/29 00:46:54;;;;;;;926.87;851.10;;;0.80;99.90;;;;;;4866231;29;20493;-85
2021/11/29 00:49:21;;;;;;;932.50;857.22;;;0.90;99.90;;;;;;4867802;29;20551;-85
2021/11/29 00:51:49;;;;;;;949.20;873.30;;;0.80;99.90;;;;;;4868568;29;20203;-86
2021/11/29 00:54:16;;;;;;;958.93;882.43;;;0.70;99.90;;;;;;4868869;29;20555;-85
2021/11/29 00:56:43;;;;;;;959.23;882.67;;;0.60;99.90;;;;;;4868753;29;20456;-84
2021/11/29 00:59:10;;;;;;;955.23;878.03;;;0.50;99.90;;;;;;4869050;29;21003;-85
2021/11/29 01:01:37;;;;;;;958.90;882.33;;;0.50;99.90;;;;;;4868428;29;20462;-85
2021/11/29 01:04:04;;;;;;;954.07;876.30;;;0.40;99.90;;;;;;4868676;29;20476;-85
2021/11/29 01:06:32;;;;;;;971.47;892.57;;;0.40;99.90;;;;;;4867331;29;20488;-85
2021/11/29 01:09:00;;;;;;;951.87;872.73;;;0.40;99.90;;;;;;4867572;29;20457;-86
2021/11/29 01:11:27;;;;;;;954.97;876.37;;;0.40;99.90;;;;;;4867461;29;20824;-85
2021/11/29 01:13:54;;;;;;;954.20;877.00;;;0.40;99.90;;;;;;4867538;29;20456;-85
2021/11/29 01:16:20;;;;;;;944.53;868.67;;;0.50;99.90;;;;;;4867881;29;20460;-85
2021/11/29 01:18:47;;;;;;;917.63;843.17;;;0.50;99.90;;;;;;4867080;29;20481;-86
2021/11/29 01:21:14;;;;;;;903.03;829.13;;;0.70;99.90;;;;;;4867488;29;20460;-85
2021/11/29 01:23:41;;;;;;;895.70;822.00;;;0.70;99.90;;;;;;4867494;29;20460;-85
2021/11/29 01:26:11;;;;;;;890.13;817.63;;;0.80;99.90;;;;;;4866925;29;20495;-85
2021/11/29 01:28:39;;;;;;;895.87;824.13;;;0.80;99.90;;;;;;4868073;29;20551;-85
2021/11/29 01:31:07;;;;;;;887.67;816.90;;;0.80;99.90;;;;;;4867027;29;20461;-85
2021/11/29 01:33:33;;;;;;;882.40;812.60;;;0.80;99.90;;;;;;4867172;29;20876;-85
2021/11/29 01:36:00;;;;;;;882.47;813.70;;;0.90;99.90;;;;;;4866330;29;20958;-85
2021/11/29 01:38:27;;;;;;;885.90;818.20;;;0.90;99.90;;;;;;4867905;29;20484;-85
2021/11/29 01:40:54;;;;;;;877.83;811.60;;;0.90;99.90;;;;;;4866525;29;20911;-86
2021/11/29 01:43:23;;;;;;;890.13;824.03;;;0.90;99.90;;;;;;4867110;29;20456;-85
2021/11/29 01:45:52;;;;;;;887.20;822.17;;;0.80;99.90;;;;;;4867107;29;20487;-85
2021/11/29 01:48:20;;;;;;;886.30;822.07;;;0.70;99.90;;;;;;4867297;29;20477;-86
2021/11/29 01:50:50;;;;;;;882.43;818.20;;;0.70;99.90;;;;;;4866745;29;20969;-86
2021/11/29 01:53:19;;;;;;;896.57;832.13;;;0.60;99.90;;;;;;4866022;29;20470;-86
2021/11/29 01:55:47;;;;;;;882.17;816.67;;;0.50;99.90;;;;;;4866327;29;20456;-85
2021/11/29 01:58:14;;;;;;;884.97;819.30;;;0.50;99.90;;;;;;4866441;29;20831;-85
2021/11/29 02:00:45;;;;;;;874.97;809.77;;;0.40;99.90;;;;;;4866987;29;20444;-85
2021/11/29 02:03:13;;;;;;;873.67;808.00;;;0.40;99.90;;;;;;4879419;29;20462;-85
2021/11/29 02:05:40;;;;;;;864.63;801.87;;;0.60;99.90;;;;;;4884934;29;20519;-86
2021/11/29 02:08:08;;;;;;;887.33;822.03;;;0.50;99.90;;;;;;4885475;29;20827;-85
2021/11/29 02:10:36;;;;;;;869.77;806.60;;;0.40;99.90;;;;;;4885624;29;20447;-85
2021/11/29 02:13:04;;;;;;;870.50;805.87;;;0.40;99.90;;;;;;4886386;29;20519;-85
2021/11/29 02:15:30;;;;;;;873.97;810.10;;;0.50;99.90;;;;;;4886238;29;20558;-86
2021/11/29 02:17:59;;;;;;;886.30;820.37;;;0.50;99.90;;;;;;4886027;29;20570;-85
2021/11/29 02:20:30;;;;;;;887.37;820.87;;;0.40;99.90;;;;;;4887557;29;20463;-85
2021/11/29 02:22:57;;;;;;;903.40;836.10;;;0.50;99.90;;;;;;4887636;29;20464;-85
2021/11/29 02:25:24;;;;;;;908.07;840.73;;;0.40;99.90;;;;;;4886008;29;20459;-85
2021/11/29 02:27:52;;;;;;;907.07;839.03;;;0.40;99.90;;;;;;4886446;29;20483;-85
2021/11/29 02:30:20;;;;;;;924.33;855.97;;;0.40;99.90;;;;;;4887376;29;20459;-85
2021/11/29 02:32:52;;;;;;;921.80;853.47;;;0.30;99.90;;;;;;4886731;29;20203;-85
2021/11/29 02:35:20;;;;;;;930.23;858.83;;;0.30;99.90;;;;;;4886847;29;20474;-85
2021/11/29 02:37:49;;;;;;;927.77;857.83;;;0.40;99.90;;;;;;4886656;29;20475;-85
2021/11/29 02:40:15;;;;;;;916.00;844.30;;;0.30;99.90;;;;;;4887071;29;20554;-86
2021/11/29 02:42:42;;;;;;;935.07;861.63;;;0.40;99.90;;;;;;4887196;29;20456;-85
2021/11/29 02:45:09;;;;;;;928.50;856.20;;;0.60;99.90;;;;;;4885679;29;20459;-84
2021/11/29 02:47:37;;;;;;;911.30;838.37;;;0.50;99.90;;;;;;4884954;29;20495;-85
2021/11/29 02:50:05;;;;;;;906.27;832.30;;;0.60;99.90;;;;;;4886289;29;20470;-85
2021/11/29 02:52:32;;;;;;;905.77;833.37;;;0.70;99.90;;;;;;4885242;29;20474;-85
2021/11/29 02:55:01;;;;;;;899.17;828.50;;;0.70;99.90;;;;;;4885281;29;20456;-85
2021/11/29 02:57:27;;;;;;;890.43;820.93;;;0.80;99.90;;;;;;4884568;29;20502;-85
2021/11/29 02:59:54;;;;;;;899.20;829.17;;;0.90;99.90;;;;;;4884919;29;20972;-85
2021/11/29 03:02:22;;;;;;;871.53;803.77;;;0.90;99.90;;;;;;4886312;29;20828;-85
2021/11/29 03:04:49;;;;;;;871.57;803.37;;;1.00;99.90;;;;;;4885488;29;20483;-86
2021/11/29 03:07:17;;;;;;;877.50;810.67;;;1.00;99.90;;;;;;4884571;29;20515;-85
2021/11/29 03:09:44;;;;;;;876.60;810.60;;;1.10;99.90;;;;;;4881887;29;20954;-86
2021/11/29 03:12:13;;;;;;;875.33;809.90;;;1.00;99.90;;;;;;4868931;29;20464;-84
2021/11/29 03:14:40;;;;;;;877.40;812.53;;;1.10;99.90;;;;;;4867664;29;20552;-85
2021/11/29 03:17:07;;;;;;;870.50;806.90;;;1.00;99.90;;;;;;4867527;29;20476;-85
2021/11/29 03:19:36;;;;;;;873.90;810.30;;;1.00;99.90;;;;;;4868252;29;20468;-85
2021/11/29 03:22:05;;;;;;;880.97;817.57;;;1.10;99.90;;;;;;4869011;29;20475;-85
2021/11/29 03:24:32;;;;;;;866.27;804.53;;;1.10;99.90;;;;;;4867562;29;20551;-85
2021/11/29 03:26:59;;;;;;;864.80;803.50;;;1.10;99.90;;;;;;4868224;29;21110;-85
2021/11/29 03:29:28;;;;;;;878.57;816.20;;;1.10;99.90;;;;;;4868389;29;21041;-85
2021/11/29 03:31:55;;;;;;;854.97;795.97;;;1.10;99.90;;;;;;4868474;29;20532;-85
2021/11/29 03:34:24;;;;;;;857.60;798.50;;;1.20;99.90;;;;;;4867745;29;20464;-84
2021/11/29 03:36:52;;;;;;;854.47;795.97;;;1.20;99.90;;;;;;4867903;29;20477;-85
2021/11/29 03:39:21;;;;;;;858.17;800.17;;;1.10;99.90;;;;;;4867789;29;20555;-85
2021/11/29 03:41:50;;;;;;;866.67;807.90;;;1.20;99.90;;;;;;4868542;29;20464;-85
2021/11/29 03:44:18;;;;;;;874.13;816.57;;;1.10;99.90;;;;;;4868251;29;20468;-86
2021/11/29 03:46:48;;;;;;;874.97;817.93;;;1.00;99.90;;;;;;4867765;29;20488;-85
2021/11/29 03:49:15;;;;;;;863.40;806.50;;;1.00;99.90;;;;;;4865337;29;20467;-85
2021/11/29 03:51:42;;;;;;;877.97;819.00;;;1.00;99.90;;;;;;4866113;29;20460;-85
2021/11/29 03:54:12;;;;;;;854.27;798.73;;;0.90;99.90;;;;;;4865081;29;20505;-85
2021/11/29 03:56:39;;;;;;;855.07;800.10;;;1.10;99.90;;;;;;4864850;29;20539;-85
2021/11/29 03:59:07;;;;;;;860.13;804.53;;;1.00;99.90;;;;;;4866004;29;20496;-85
2021/11/29 04:01:34;;;;;;;879.97;821.90;;;1.10;99.90;;;;;;4879582;29;20463;-84
2021/11/29 04:04:02;;;;;;;864.90;808.10;;;1.00;99.90;;;;;;4866028;29;20461;-83
2021/11/29 04:06:51;;;;;;;865.10;809.07;;;0.90;99.90;;;;;;4888399;29;20483;-84
2021/11/29 04:09:29;;;;;;;858.50;802.63;;;0.80;99.90;;;;;;4884123;29;20499;-85
2021/11/29 04:11:57;;;;;;;859.70;803.10;;;0.80;99.90;;;;;;4879793;29;20527;-86
2021/11/29 04:14:24;;;;;;;853.17;797.43;;;0.80;99.90;;;;;;4881228;29;20550;-85
2021/11/29 04:16:51;;;;;;;853.23;797.43;;;0.80;99.90;;;;;;4880438;29;20876;-85
2021/11/29 04:19:19;;;;;;;856.83;799.87;;;0.90;99.90;;;;;;4881370;29;20514;-85
2021/11/29 04:21:47;;;;;;;866.37;810.33;;;0.80;99.90;;;;;;4880539;29;20470;-86
2021/11/29 04:24:16;;;;;;;856.30;800.90;;;0.80;99.90;;;;;;4880512;29;20464;-86
2021/11/29 04:26:50;;;;;;;864.37;807.80;;;0.90;99.90;;;;;;4881906;29;20485;-84
2021/11/29 04:29:21;;;;;;;872.20;813.77;;;0.80;99.90;;;;;;4886707;29;20473;-85
2021/11/29 04:31:51;;;;;;;875.47;817.70;;;0.80;99.90;;;;;;4887405;29;20471;-85
2021/11/29 04:34:19;;;;;;;871.70;814.10;;;0.90;99.90;;;;;;4886885;29;20463;-85
2021/11/29 04:36:46;;;;;;;876.77;816.10;;;0.80;99.90;;;;;;4886530;29;20502;-85
2021/11/29 04:39:13;;;;;;;877.65;816.47;;;0.80;99.90;;;;;;4887457;29;20467;-85
2021/11/29 04:41:41;;;;;;;876.30;814.40;;;0.80;99.90;;;;;;4887000;29;20203;-85
2021/11/29 04:44:08;;;;;;;870.00;808.90;;;0.80;99.90;;;;;;4884492;29;20986;-85
2021/11/29 04:46:35;;;;;;;881.23;819.73;;;0.80;99.90;;;;;;4884964;29;21022;-85
2021/11/29 04:49:03;;;;;;;880.77;820.73;;;0.80;99.90;;;;;;4883464;29;20463;-85
2021/11/29 04:51:32;;;;;;;880.73;819.50;;;0.80;99.90;;;;;;4888614;29;20952;-85
2021/11/29 04:53:59;;;;;;;878.23;816.03;;;0.70;99.90;;;;;;4885979;29;20463;-85
2021/11/29 04:56:26;;;;;;;897.07;833.40;;;0.70;99.90;;;;;;4884548;29;20456;-85
2021/11/29 04:58:52;;;;;;;885.33;820.87;;;0.70;99.90;;;;;;4884626;29;20475;-86
2021/11/29 05:01:19;;;;;;;885.17;821.63;;;0.80;99.90;;;;;;4884430;29;20459;-85
2021/11/29 05:03:46;;;;;;;890.47;827.30;;;0.90;99.90;;;;;;4868540;29;20457;-86
2021/11/29 05:06:24;;;;;;;901.67;837.35;;;0.70;99.90;;;;;;4868541;29;20585;-86
2021/11/29 05:08:53;;;;;;;888.70;825.37;;;0.80;99.90;;;;;;4872361;29;20230;-85
2021/11/29 05:11:20;;;;;;;871.33;807.37;;;0.90;99.90;;;;;;4879414;29;21052;-85
2021/11/29 05:13:57;;;;;;;877.00;814.47;;;0.90;99.90;;;;;;4867476;29;20968;-86
2021/11/29 05:16:24;;;;;;;875.97;815.60;;;1.00;99.90;;;;;;4875525;29;20456;-87
2021/11/29 05:18:51;;;;;;;862.03;803.10;;;1.00;99.90;;;;;;4885435;29;20463;-85
2021/11/29 05:21:18;;;;;;;859.57;801.03;;;1.10;99.90;;;;;;4885690;29;20463;-85
2021/11/29 05:23:47;;;;;;;845.40;787.80;;;1.00;99.90;;;;;;4884392;29;20471;-85
2021/11/29 05:26:17;;;;;;;842.87;786.00;;;1.20;99.90;;;;;;4884401;29;20491;-86
2021/11/29 05:28:44;;;;;;;847.87;791.00;;;1.20;99.90;;;;;;4883921;29;20479;-85
2021/11/29 05:31:11;;;;;;;846.03;789.03;;;1.20;99.90;;;;;;4883301;29;20537;-85
2021/11/29 05:33:38;;;;;;;838.00;781.80;;;1.30;99.90;;;;;;4884487;29;20463;-85
2021/11/29 05:36:05;;;;;;;849.43;791.93;;;1.20;99.90;;;;;;4884670;29;20459;-85
2021/11/29 05:38:32;;;;;;;840.40;783.47;;;1.20;99.90;;;;;;4884890;29;20486;-85
2021/11/29 05:41:00;;;;;;;851.80;794.00;;;1.30;99.90;;;;;;4883380;29;20470;-85
2021/11/29 05:43:28;;;;;;;854.30;796.37;;;1.20;99.90;;;;;;4885486;29;20462;-85
2021/11/29 05:45:57;;;;;;;855.87;797.70;;;1.20;99.90;;;;;;4885903;29;20464;-85
2021/11/29 05:48:24;;;;;;;858.90;800.77;;;1.20;99.90;;;;;;4887228;29;20526;-85
2021/11/29 05:50:51;;;;;;;858.80;799.80;;;1.20;99.90;;;;;;4886522;29;20866;-85
2021/11/29 05:53:18;;;;;;;857.57;799.50;;;1.20;99.90;;;;;;4885141;29;20466;-86
2021/11/29 05:55:45;;;;;;;853.30;796.33;;;1.30;99.90;;;;;;4884675;29;20468;-85
2021/11/29 05:58:12;;;;;;;836.40;780.43;;;1.30;99.90;;;;;;4881651;29;20479;-86
2021/11/29 06:00:40;;;;;;;844.90;788.80;;;1.40;99.90;;;;;;4881061;29;20444;-85
2021/11/29 06:03:19;;;;;;;840.47;785.17;;;1.40;99.90;;;;;;4881065;29;20455;-86
2021/11/29 06:05:54;;;;;;;837.60;781.90;;;1.30;99.90;;;;;;4867382;29;20460;-86
2021/11/29 06:08:55;;;;;;;831.33;776.90;;;1.30;99.90;;;;;;4863765;29;20484;-86
2021/11/29 06:11:35;;;;;;;830.20;775.40;;;1.30;99.90;;;;;;4860097;29;20817;-86
2021/11/29 06:14:10;;;;;;;830.37;775.37;;;1.40;99.90;;;;;;4861610;29;20494;-86
2021/11/29 06:16:44;;;;;;;819.73;765.03;;;1.40;99.90;;;;;;4861789;29;20456;-86
2021/11/29 06:19:20;;;;;;;827.97;773.13;;;1.30;99.90;;;;;;4862062;29;20976;-86
2021/11/29 06:24:30;;;;;;;819.40;766.10;;;1.40;99.90;;;;;;4861880;29;20464;-86
2021/11/29 06:26:57;;;;;;;821.83;768.23;;;1.40;99.90;;;;;;4861455;29;20931;-86
2021/11/29 06:29:24;;;;;;;821.73;769.40;;;1.40;99.90;;;;;;4864194;29;20467;-85
2021/11/29 06:31:57;;;;;;;828.40;776.03;;;1.50;99.90;;;;;;4861897;29;20894;-85
2021/11/29 06:34:26;;;;;;;804.63;753.20;;;1.50;99.90;;;;;;4862323;29;20547;-85
2021/11/29 06:37:01;;;;;;;809.37;758.90;;;1.40;99.90;;;;;;4862548;29;20476;-87
2021/11/29 06:39:33;;;;;;;799.87;750.20;;;1.40;99.90;;;;;;4876115;29;20550;-86
2021/11/29 06:42:05;;;;;;;811.13;761.50;;;1.50;99.90;;;;;;4872879;29;20489;-86
2021/11/29 06:44:32;;;;;;;802.63;753.27;;;1.40;99.90;;;;;;4861136;29;20467;-85
2021/11/29 06:47:00;;;;;;;795.80;746.00;;;1.40;99.90;;;;;;4861596;29;20496;-85
2021/11/29 06:49:27;;;;;;;792.57;743.30;;;1.30;99.90;;;;;;4863373;29;20467;-84
2021/11/29 06:52:02;;;;;;;774.07;726.67;;;1.40;99.90;;;;;;4865905;29;20466;-86
2021/11/29 06:54:31;;;;;;;772.87;726.47;;;1.40;99.90;;;;;;4881243;29;21027;-85
2021/11/29 06:56:57;;;;;;;762.47;716.20;;;1.40;99.90;;;;;;4880812;29;20566;-85
2021/11/29 06:59:25;;;;;;;763.63;717.33;;;1.40;99.90;;;;;;4881225;29;20475;-85
2021/11/29 07:01:56;;;;;;;753.57;707.97;;;1.40;99.90;;;;;;4880018;29;20467;-86
2021/11/29 07:04:34;;;;;;;742.00;698.50;;;1.50;99.90;;;;;;4876764;29;21010;-86
2021/11/29 07:07:03;;;;;;;728.40;687.00;;;1.50;99.90;;;;;;4861090;29;20587;-86
2021/11/29 07:09:30;;;;;;;734.77;692.67;;;1.50;99.90;;;;;;4862095;29;20541;-85
2021/11/29 07:11:57;;;;;;;753.53;710.23;;;1.50;99.90;;;;;;4862352;29;20457;-86
2021/11/29 07:14:29;;;;;;;750.33;706.50;;;1.40;99.90;;;;;;4861042;29;20466;-84
2021/11/29 07:17:01;;;;;;;775.03;728.90;;;1.30;99.90;;;;;;4862341;29;20575;-85
2021/11/29 07:19:30;;;;;;;771.93;726.10;;;1.30;99.90;;;;;;4862027;29;20496;-85
2021/11/29 07:21:57;;;;;;;771.87;726.13;;;1.30;99.90;;;;;;4865454;29;20457;-85
2021/11/29 07:24:23;;;;;;;773.17;726.50;;;1.40;99.90;;;;;;4867933;29;20820;-85
2021/11/29 07:26:52;;;;;;;765.77;719.50;;;1.40;99.90;;;;;;4866933;29;20939;-85
2021/11/29 07:29:19;;;;;;;773.13;727.33;;;1.40;99.90;;;;;;4866443;29;20916;-85
2021/11/29 07:31:46;;;;;;;781.17;733.40;;;1.40;99.90;;;;;;4869427;29;21025;-85
2021/11/29 07:34:13;;;;;;;786.57;738.17;;;1.30;99.90;;;;;;4866540;29;20484;-85
2021/11/29 07:36:41;;;;;;;800.03;750.93;;;1.30;99.90;;;;;;4864722;29;20470;-83
2021/11/29 07:39:16;;;;;;;808.17;758.60;;;1.40;99.90;;;;;;4864541;29;20524;-84
2021/11/29 07:44:24;;;;;;;811.53;759.97;;;1.30;99.90;;;;;;4865711;29;20552;-84
2021/11/29 07:46:51;;;;;;;813.00;761.13;;;1.40;99.90;;;;;;4866374;29;21242;-84
2021/11/29 07:49:18;;;;;;;807.37;755.57;;;1.40;99.90;;;;;;4865241;29;20520;-85
2021/11/29 07:51:51;;;;;;;807.67;755.73;;;1.40;99.90;;;;;;4866648;29;20464;-85
2021/11/29 07:54:19;;;;;;;803.83;753.10;;;1.40;99.90;;;;;;4866395;29;20880;-85
2021/11/29 07:56:46;;;;;;;809.40;757.90;;;1.50;99.90;;;;;;4865575;29;20511;-84
2021/11/29 07:59:36;;;;;;;811.40;759.13;;;1.40;99.90;;;;;;4865841;29;20464;-85
2021/11/29 08:02:04;;;;;;;811.77;759.37;;;1.50;99.90;;;;;;4843493;29;20567;-85
2021/11/29 08:04:31;;;;;;;799.80;749.50;;;1.50;99.90;;;;;;4878471;29;20468;-85
2021/11/29 08:07:02;;;;;;;785.63;736.17;;;1.60;99.90;;;;;;4870171;29;20491;-85
2021/11/29 08:09:29;;;;;;;813.03;760.20;;;1.60;99.90;;;;;;4869588;29;20470;-86
2021/11/29 08:11:56;;;;;;;793.07;741.27;;;1.70;99.90;;;;;;4868063;29;20479;-85
2021/11/29 08:14:24;;;;;;;785.87;736.73;;;1.80;99.90;;;;;;4866122;29;20460;-85
2021/11/29 08:16:51;;;;;;;771.27;723.30;;;1.80;99.90;;;;;;4866786;29;20502;-85
2021/11/29 08:19:18;;;;;;;763.03;715.83;;;1.80;99.90;;;;;;4865784;29;20512;-85
2021/11/29 08:21:45;;;;;;;770.67;721.77;;;1.90;99.90;;;;;;4864331;29;20456;-86
2021/11/29 08:24:13;;;;;;;764.70;716.80;;;1.80;99.90;;;;;;4864415;29;20460;-85
2021/11/29 08:26:40;;;;;;;764.20;717.70;;;1.90;99.90;;;;;;4864422;29;20460;-85
2021/11/29 08:29:08;;;;;;;750.60;705.50;;;1.90;99.90;;;;;;4865465;29;20490;-85
2021/11/29 08:31:38;;;;;;;713.20;672.00;;;1.90;99.90;;;;;;4868468;29;20467;-86
2021/11/29 08:34:06;;;;;;;740.43;697.23;;;2.00;99.90;;;;;;4881491;29;20515;-86
2021/11/29 08:36:34;;;;;;;723.53;680.50;;;1.90;99.90;;;;;;4881337;29;20837;-86
2021/11/29 08:39:01;;;;;;;713.47;673.13;;;1.80;99.90;;;;;;4880622;29;20463;-85
2021/11/29 08:41:29;;;;;;;733.60;691.90;;;1.90;99.90;;;;;;4880128;29;20515;-85
2021/11/29 08:43:56;;;;;;;726.10;684.70;;;1.90;99.90;;;;;;4882553;29;20466;-85
2021/11/29 08:46:23;;;;;;;720.83;679.43;;;2.00;99.90;;;;;;4882606;29;20829;-85
2021/11/29 08:48:50;;;;;;;736.53;693.43;;;2.10;99.90;;;;;;4882746;29;20482;-86
2021/11/29 08:51:17;;;;;;;719.40;676.30;;;2.30;99.90;;;;;;4882529;29;20464;-85
2021/11/29 08:53:45;;;;;;;652.03;617.53;;;2.50;99.90;;;;;;4883857;29;20471;-85
2021/11/29 08:56:12;;;;;;;670.17;634.73;;;2.50;99.90;;;;;;4882901;29;20463;-85
2021/11/29 08:58:40;;;;;;;663.93;629.53;;;2.60;99.90;;;;;;4882320;29;20487;-85
2021/11/29 09:01:07;;;;;;;628.47;596.57;;;2.70;99.90;;;;;;4884654;29;20472;-84
2021/11/29 09:03:34;;;;;;;605.10;575.40;;;2.80;99.90;;;;;;4884155;29;20460;-85
2021/11/29 09:06:01;;;;;;;542.30;518.77;;;3.00;99.90;;;;;;4868468;29;20964;-85
2021/11/29 09:08:28;;;;;;;578.77;551.07;;;3.00;99.90;;;;;;4865539;29;20515;-85
2021/11/29 09:10:56;;;;;;;488.40;468.40;;;3.00;99.90;;;;;;4875088;29;20460;-84
2021/11/29 09:13:23;;;;;;;446.97;428.77;;;3.00;99.90;;;;;;4864527;29;20919;-85
2021/11/29 09:15:51;;;;;;;378.03;363.73;;;3.00;99.90;;;;;;4862693;29;21037;-84
2021/11/29 09:18:17;;;;;;;376.20;361.77;;;3.00;99.90;;;;;;4865254;29;20859;-84
2021/11/29 09:20:45;;;;;;;334.53;322.10;;;2.90;99.90;;;;;;4866123;29;20479;-85
2021/11/29 09:23:13;;;;;;;292.40;281.30;;;2.90;99.90;;;;;;4866159;29;20479;-85
2021/11/29 09:25:42;;;;;;;435.50;418.60;;;2.90;99.90;;;;;;4865233;29;20460;-84
2021/11/29 09:28:10;;;;;;;385.60;371.60;;;2.90;99.90;;;;;;4865398;29;20488;-84
2021/11/29 09:30:38;;;;;;;367.80;354.90;;;2.90;99.90;;;;;;4867513;29;20461;-84
2021/11/29 09:33:06;;;;;;;389.70;375.27;;;2.90;99.90;;;;;;4866227;29;20491;-85
2021/11/29 09:35:34;;;;;;;401.93;387.03;;;3.00;99.90;;;;;;4864846;29;20450;-84
2021/11/29 09:38:02;;;;;;;426.80;410.90;;;3.00;99.90;;;;;;4864179;29;20518;-85
2021/11/29 09:40:33;;;;;;;423.50;407.80;;;3.00;99.90;;;;;;4877658;29;20960;-85
2021/11/29 09:43:00;;;;;;;407.27;392.00;;;2.90;99.90;;;;;;4883105;29;20463;-85
2021/11/29 09:45:27;;;;;;;379.57;365.47;;;2.90;99.90;;;;;;4883633;29;20463;-84
2021/11/29 09:47:55;;;;;;;403.00;388.43;;;2.90;99.90;;;;;;4884595;29;20495;-85
2021/11/29 09:50:23;;;;;;;415.43;399.87;;;3.00;99.90;;;;;;4884124;29;20461;-84
2021/11/29 09:52:50;;;;;;;443.30;425.83;;;2.90;99.90;;;;;;4884635;29;20464;-85
2021/11/29 09:55:21;;;;;;;463.03;444.43;;;2.80;99.90;;;;;;4884235;29;20841;-85
2021/11/29 09:57:48;;;;;;;495.90;475.20;;;2.80;99.90;;;;;;4883395;29;20479;-85
2021/11/29 10:00:18;;;;;;;500.90;480.50;;;2.80;99.90;;;;;;4877966;29;20904;-85
2021/11/29 10:02:45;;;;;;;504.63;484.23;;;2.90;99.90;;;;;;4883854;29;20843;-85
2021/11/29 10:05:11;;;;;;;464.70;444.50;;;2.80;99.90;;;;;;4874162;29;20452;-85
2021/11/29 10:07:45;;;;;;;506.57;485.93;;;2.90;99.90;;;;;;4863137;29;20487;-85
2021/11/29 10:10:16;;;;;;;595.13;567.67;;;3.00;99.90;;;;;;4863615;29;20506;-85
2021/11/29 10:12:44;;;;;;;561.53;536.73;;;3.10;99.90;;;;;;4864738;29;20452;-84
2021/11/29 10:15:21;;;;;;;543.90;520.33;;;3.30;99.90;;;;;;4864062;29;20452;-86
2021/11/29 10:17:51;;;;;;;483.67;463.93;;;3.50;99.90;;;;;;4864369;29;20480;-85
2021/11/29 10:20:18;;;;;;;282.08;272.05;;;3.60;99.90;;;;;;4863463;29;20797;-85
2021/11/29 10:22:59;;;;;;;336.63;324.87;;;3.60;99.90;;;;;;4865814;29;20219;-85
2021/11/29 10:25:25;;;;;;;292.57;282.27;;;3.60;99.90;;;;;;4868525;29;20815;-84
2021/11/29 10:27:52;;;;;;;297.47;287.63;;;3.50;99.90;;;;;;4867450;29;20511;-84
2021/11/29 10:30:21;;;;;;;299.83;289.80;;;3.40;99.90;;;;;;4872598;29;20466;-84
2021/11/29 10:32:49;;;;;;;305.17;295.00;;;3.30;99.90;;;;;;4885188;29;20470;-83
2021/11/29 10:35:24;;;;;;;330.60;318.20;;;3.30;99.90;;;;;;4885403;29;20467;-85
2021/11/29 10:37:52;;;;;;;378.77;365.27;;;3.40;99.90;;;;;;4886085;29;20875;-85
2021/11/29 10:40:21;;;;;;;398.17;383.47;;;3.40;99.90;;;;;;4886025;29;20456;-84
2021/11/29 10:42:49;;;;;;;365.60;352.60;;;3.60;99.90;;;;;;4885608;29;20459;-85
2021/11/29 10:45:23;;;;;;;377.50;363.33;;;3.50;99.90;;;;;;4884886;29;20455;-85
2021/11/29 10:47:52;;;;;;;413.50;398.37;;;3.50;99.90;;;;;;4885432;29;20574;-85
2021/11/29 10:50:23;;;;;;;407.63;392.87;;;3.50;99.90;;;;;;4885705;29;20463;-84
2021/11/29 10:52:50;;;;;;;440.37;423.87;;;3.50;99.90;;;;;;4886422;29;20456;-85
2021/11/29 10:55:17;;;;;;;441.47;424.23;;;3.60;99.90;;;;;;4885334;29;20462;-84
2021/11/29 10:57:52;;;;;;;467.30;449.50;;;3.60;99.90;;;;;;4885158;29;21019;-84
2021/11/29 11:00:19;;;;;;;424.17;407.90;;;3.70;99.90;;;;;;4885760;29;20503;-85
2021/11/29 11:03:01;;;;;;;453.27;435.57;;;3.70;99.90;;;;;;4886419;29;20455;-84
2021/11/29 11:05:29;;;;;;;422.97;407.07;;;3.80;99.90;;;;;;4885589;29;20526;-84
2021/11/29 11:08:11;;;;;;;430.80;414.73;;;3.70;99.90;;;;;;4885474;29;20477;-84
2021/11/29 11:10:38;;;;;;;463.67;445.10;;;3.60;99.90;;;;;;4885413;29;20459;-85
2021/11/29 11:13:06;;;;;;;483.07;463.53;;;3.50;99.90;;;;;;4883369;29;20466;-85
2021/11/29 11:15:45;;;;;;;572.47;547.63;;;3.50;99.90;;;;;;4883548;29;20467;-85
2021/11/29 11:18:12;;;;;;;580.43;555.03;;;3.50;99.90;;;;;;4884820;29;20486;-84
2021/11/29 11:20:39;;;;;;;554.30;530.60;;;3.50;99.90;;;;;;4885653;29;20558;-84
2021/11/29 11:23:06;;;;;;;588.07;561.97;;;3.50;99.90;;;;;;4885958;29;20459;-85
2021/11/29 11:25:35;;;;;;;590.43;563.93;;;3.50;99.90;;;;;;4884089;29;20460;-84
2021/11/29 11:28:05;;;;;;;691.20;654.67;;;3.50;99.90;;;;;;4886494;29;20483;-85
2021/11/29 11:30:37;;;;;;;661.30;629.07;;;3.50;99.90;;;;;;4884243;29;20503;-83
2021/11/29 11:33:06;;;;;;;723.93;685.17;;;3.50;99.90;;;;;;4884193;29;20883;-84
2021/11/29 11:35:35;;;;;;;735.27;694.13;;;3.50;99.90;;;;;;4883757;29;20586;-84
2021/11/29 11:38:05;;;;;;;746.03;701.83;;;3.60;99.90;;;;;;4883895;29;20475;-84
2021/11/29 11:40:34;;;;;;;775.60;726.87;;;3.60;99.90;;;;;;4884916;29;20452;-84
2021/11/29 11:43:04;;;;;;;791.23;740.60;;;3.60;99.90;;;;;;4885850;29;20471;-84
2021/11/29 11:45:34;;;;;;;782.27;732.97;;;3.60;99.90;;;;;;4885181;29;20463;-84
2021/11/29 11:48:02;;;;;;;795.27;744.57;;;3.70;99.90;;;;;;4884299;29;20484;-84
2021/11/29 11:50:33;;;;;;;782.87;733.87;;;3.70;99.90;;;;;;4884150;29;20464;-84
2021/11/29 11:53:00;;;;;;;793.33;741.13;;;3.80;99.90;;;;;;4884811;29;20459;-84
2021/11/29 11:55:32;;;;;;;799.40;748.17;;;3.80;99.90;;;;;;4884665;29;20463;-84
2021/11/29 11:58:01;;;;;;;779.60;731.70;;;3.90;99.90;;;;;;4884019;29;20571;-84
2021/11/29 12:00:33;;;;;;;773.23;726.27;;;3.90;99.90;;;;;;4883787;29;21035;-84
2021/11/29 12:03:17;;;;;;;745.90;702.57;;;3.90;99.90;;;;;;4884210;29;20463;-84
2021/11/29 12:05:55;;;;;;;719.90;680.50;;;4.00;99.90;;;;;;4883853;29;20459;-84
2021/11/29 12:08:39;;;;;;;708.10;671.13;;;4.10;99.90;;;;;;4883851;29;20483;-84
2021/11/29 12:11:28;;;;;;;699.13;662.63;;;4.10;99.90;;;;;;4884046;29;20550;-84
2021/11/29 12:14:17;;;;;;;686.90;652.50;;;4.20;99.90;;;;;;4883531;29;20474;-84
2021/11/29 12:16:45;;;;;;;664.70;631.70;;;4.20;99.90;;;;;;4883674;29;20468;-84
2021/11/29 12:19:37;;;;;;;686.20;651.70;;;4.20;99.90;;;;;;4883559;29;20484;-83
2021/11/29 12:22:28;;;;;;;682.40;648.30;;;4.40;99.90;;;;;;4883410;29;20470;-84
2021/11/29 12:24:59;;;;;;;651.07;620.03;;;4.40;99.90;;;;;;4882969;29;20470;-84
2021/11/29 12:27:42;;;;;;;598.10;571.20;;;4.30;99.90;;;;;;4882999;29;20511;-84
2021/11/29 12:30:14;;;;;;;615.67;587.30;;;4.40;99.90;;;;;;4882493;29;20602;-83
2021/11/29 12:32:52;;;;;;;596.57;570.00;;;4.40;99.90;;;;;;4882392;29;20470;-83